createdAt,value
2018-02-25T00:00:13.108Z,3.30
2018-02-25T00:01:13.090Z,3.20
2018-02-25T00:02:13.081Z,3.10
2018-02-25T00:03:13.061Z,3.10
2018-02-25T00:04:13.020Z,3.20
2018-02-25T00:05:12.999Z,3.00
2018-02-25T00:06:12.980Z,3.20
2018-02-25T00:07:12.954Z,3.20
2018-02-25T00:08:12.949Z,3.40
2018-02-25T00:09:12.948Z,3.10
2018-02-25T00:10:12.887Z,3.00
2018-02-25T00:11:12.869Z,3.00
2018-02-25T00:12:12.849Z,3.40
2018-02-25T00:13:12.851Z,3.00
2018-02-25T00:14:12.819Z,2.90
2018-02-25T00:15:12.787Z,3.20
2018-02-25T00:16:12.756Z,3.20
2018-02-25T00:17:12.739Z,3.40
2018-02-25T00:18:12.727Z,3.40
2018-02-25T00:19:12.713Z,3.30
2018-02-25T00:20:12.691Z,3.40
2018-02-25T00:21:12.651Z,3.40
2018-02-25T00:22:12.634Z,3.30
2018-02-25T00:23:12.605Z,3.40
2018-02-25T00:24:12.602Z,3.40
2018-02-25T00:25:12.586Z,3.00
2018-02-25T00:26:12.542Z,3.20
2018-02-25T00:27:12.528Z,3.20
2018-02-25T00:28:12.500Z,3.40
2018-02-25T00:29:12.480Z,3.40
2018-02-25T00:30:12.458Z,3.20
2018-02-25T00:31:12.449Z,3.20
2018-02-25T00:32:12.459Z,3.30
2018-02-25T00:33:12.390Z,3.10
2018-02-25T00:34:12.374Z,3.40
2018-02-25T00:35:12.348Z,3.00
2018-02-25T00:36:12.850Z,3.30
2018-02-25T00:37:12.306Z,3.30
2018-02-25T00:38:12.279Z,3.50
2018-02-25T00:39:12.256Z,3.30
2018-02-25T00:40:12.243Z,3.00
2018-02-25T00:41:12.210Z,3.20
2018-02-25T00:42:12.211Z,3.30
2018-02-25T00:43:12.186Z,3.40
2018-02-25T00:44:12.147Z,3.40
2018-02-25T00:45:12.130Z,3.50
2018-02-25T00:46:12.105Z,3.60
2018-02-25T00:47:12.147Z,3.10
2018-02-25T00:48:12.064Z,3.40
2018-02-25T00:49:12.045Z,3.40
2018-02-25T00:50:12.022Z,3.30
2018-02-25T00:51:11.997Z,3.30
2018-02-25T00:52:11.998Z,3.30
2018-02-25T00:53:11.973Z,3.20
2018-02-25T00:54:11.936Z,3.20
2018-02-25T00:55:11.909Z,3.30
2018-02-25T00:56:11.906Z,3.20
2018-02-25T00:57:11.870Z,3.60
2018-02-25T00:58:11.859Z,3.50
2018-02-25T00:59:11.824Z,3.30
2018-02-25T01:00:11.805Z,3.70
2018-02-25T01:01:11.782Z,3.40
2018-02-25T01:02:11.772Z,3.30
2018-02-25T01:03:11.747Z,3.40
2018-02-25T01:04:11.716Z,3.40
2018-02-25T01:05:11.693Z,3.20
2018-02-25T01:06:11.670Z,3.60
2018-02-25T01:07:11.663Z,3.50
2018-02-25T01:08:11.657Z,3.20
2018-02-25T01:09:11.598Z,3.70
2018-02-25T01:10:11.598Z,3.40
2018-02-25T01:11:11.558Z,3.30
2018-02-25T01:12:11.544Z,3.40
2018-02-25T01:13:11.515Z,3.30
2018-02-25T01:14:11.532Z,3.40
2018-02-25T01:15:11.483Z,3.70
2018-02-25T01:16:11.452Z,3.40
2018-02-25T01:17:11.435Z,3.40
2018-02-25T01:18:11.414Z,3.60
2018-02-25T01:19:11.403Z,3.40
2018-02-25T01:20:11.363Z,3.30
2018-02-25T01:21:11.350Z,3.40
2018-02-25T01:22:11.315Z,3.60
2018-02-25T01:23:11.821Z,3.40
2018-02-25T01:24:11.293Z,3.40
2018-02-25T01:25:11.261Z,3.70
2018-02-25T01:26:11.230Z,3.40
2018-02-25T01:27:11.210Z,3.50
2018-02-25T01:28:11.183Z,3.60
2018-02-25T01:29:11.164Z,3.50
2018-02-25T01:30:11.160Z,3.40
2018-02-25T01:31:11.118Z,3.50
2018-02-25T01:32:11.110Z,3.60
2018-02-25T01:33:11.076Z,3.40
2018-02-25T01:34:11.067Z,3.50
2018-02-25T01:35:11.049Z,3.40
2018-02-25T01:36:11.012Z,3.50
2018-02-25T01:37:10.987Z,3.40
2018-02-25T01:38:10.980Z,3.50
2018-02-25T01:39:10.943Z,3.40
2018-02-25T01:40:10.920Z,3.50
2018-02-25T01:41:10.898Z,3.80
2018-02-25T01:42:10.914Z,3.70
2018-02-25T01:43:10.853Z,3.60
2018-02-25T01:44:11.388Z,3.60
2018-02-25T01:45:10.813Z,3.60
2018-02-25T01:46:10.797Z,3.80
2018-02-25T01:47:10.767Z,3.90
2018-02-25T01:48:10.761Z,3.70
2018-02-25T01:49:10.716Z,3.70
2018-02-25T01:50:10.704Z,3.30
2018-02-25T01:51:10.675Z,3.40
2018-02-25T01:52:10.657Z,3.60
2018-02-25T01:53:10.636Z,3.80
2018-02-25T01:54:11.357Z,3.70
2018-02-25T01:55:10.590Z,3.50
2018-02-25T01:56:10.569Z,3.90
2018-02-25T01:57:10.566Z,3.90
2018-02-25T01:58:10.526Z,3.70
2018-02-25T01:59:10.501Z,3.50
2018-02-25T02:00:10.481Z,3.40
2018-02-25T02:01:10.476Z,3.60
2018-02-25T02:02:10.437Z,3.40
2018-02-25T02:03:10.411Z,3.50
2018-02-25T02:04:10.389Z,3.70
2018-02-25T02:05:10.374Z,3.50
2018-02-25T02:06:10.363Z,3.30
2018-02-25T02:07:10.349Z,3.50
2018-02-25T02:08:10.320Z,3.30
2018-02-25T02:09:10.283Z,3.60
2018-02-25T02:10:10.262Z,3.90
2018-02-25T02:11:10.233Z,3.60
2018-02-25T02:12:10.214Z,3.70
2018-02-25T02:13:10.192Z,3.40
2018-02-25T02:14:10.188Z,3.30
2018-02-25T02:15:10.158Z,3.70
2018-02-25T02:16:10.127Z,3.40
2018-02-25T02:17:10.102Z,3.40
2018-02-25T02:18:10.078Z,3.10
2018-02-25T02:19:10.057Z,3.60
2018-02-25T02:20:10.055Z,3.60
2018-02-25T02:21:10.015Z,3.60
2018-02-25T02:22:09.994Z,3.80
2018-02-25T02:23:09.966Z,3.60
2018-02-25T02:24:09.948Z,3.50
2018-02-25T02:25:10.821Z,3.40
2018-02-25T02:26:09.903Z,3.60
2018-02-25T02:27:09.886Z,3.50
2018-02-25T02:28:09.863Z,3.90
2018-02-25T02:29:09.838Z,3.60
2018-02-25T02:30:09.833Z,3.40
2018-02-25T02:31:09.794Z,3.90
2018-02-25T02:32:09.781Z,3.70
2018-02-25T02:33:09.755Z,3.50
2018-02-25T02:34:09.730Z,4.00
2018-02-25T02:35:09.697Z,3.80
2018-02-25T02:36:09.690Z,3.80
2018-02-25T02:37:09.657Z,3.70
2018-02-25T02:38:09.636Z,3.80
2018-02-25T02:39:09.607Z,3.90
2018-02-25T02:40:09.606Z,3.70
2018-02-25T02:41:09.599Z,3.40
2018-02-25T02:42:09.552Z,5.50
2018-02-25T02:43:09.524Z,12.10
2018-02-25T02:44:09.502Z,10.60
2018-02-25T02:45:09.480Z,9.00
2018-02-25T02:46:09.470Z,6.40
2018-02-25T02:47:09.444Z,6.00
2018-02-25T02:48:09.419Z,5.20
2018-02-25T02:49:09.388Z,4.90
2018-02-25T02:50:09.368Z,4.00
2018-02-25T02:51:09.349Z,4.00
2018-02-25T02:52:09.339Z,3.90
2018-02-25T02:53:09.302Z,4.00
2018-02-25T02:54:09.279Z,3.80
2018-02-25T02:55:09.265Z,3.90
2018-02-25T02:56:09.238Z,4.00
2018-02-25T02:57:09.228Z,4.40
2018-02-25T02:58:09.203Z,4.20
2018-02-25T02:59:09.172Z,4.10
2018-02-25T03:00:09.145Z,4.10
2018-02-25T03:01:09.122Z,4.00
2018-02-25T03:02:09.115Z,3.90
2018-02-25T03:03:09.072Z,3.90
2018-02-25T03:04:09.053Z,4.00
2018-02-25T03:05:09.039Z,4.00
2018-02-25T03:06:09.012Z,3.80
2018-02-25T03:07:09.006Z,4.10
2018-02-25T03:08:08.981Z,4.10
2018-02-25T03:09:08.944Z,4.10
2018-02-25T03:10:08.924Z,4.10
2018-02-25T03:11:08.907Z,4.00
2018-02-25T03:12:08.877Z,4.10
2018-02-25T03:13:08.849Z,4.30
2018-02-25T03:14:08.848Z,4.00
2018-02-25T03:15:08.809Z,4.10
2018-02-25T03:16:08.803Z,4.10
2018-02-25T03:17:08.769Z,4.30
2018-02-25T03:18:08.743Z,4.20
2018-02-25T03:19:08.764Z,4.10
2018-02-25T03:20:08.713Z,4.40
2018-02-25T03:21:08.672Z,4.20
2018-02-25T03:22:08.650Z,4.10
2018-02-25T03:23:08.627Z,4.30
2018-02-25T03:24:08.629Z,4.20
2018-02-25T03:25:08.600Z,4.60
2018-02-25T03:26:08.563Z,4.10
2018-02-25T03:27:08.541Z,4.50
2018-02-25T03:28:08.522Z,4.10
2018-02-25T03:29:08.489Z,4.20
2018-02-25T03:30:08.492Z,4.50
2018-02-25T03:31:08.480Z,4.30
2018-02-25T03:32:08.427Z,4.30
2018-02-25T03:33:08.410Z,4.30
2018-02-25T03:34:08.379Z,4.30
2018-02-25T03:35:08.353Z,4.30
2018-02-25T03:36:08.352Z,4.30
2018-02-25T03:37:08.848Z,4.20
2018-02-25T03:38:08.292Z,4.40
2018-02-25T03:39:08.270Z,4.60
2018-02-25T03:40:08.245Z,4.40
2018-02-25T03:41:08.241Z,4.50
2018-02-25T03:42:08.203Z,4.40
2018-02-25T03:43:08.179Z,4.30
2018-02-25T03:44:08.157Z,4.40
2018-02-25T03:45:08.138Z,4.50
2018-02-25T03:46:08.111Z,4.50
2018-02-25T03:47:08.107Z,4.40
2018-02-25T03:48:08.068Z,4.40
2018-02-25T03:49:08.038Z,4.30
2018-02-25T03:50:08.020Z,4.20
2018-02-25T03:51:07.998Z,4.60
2018-02-25T03:52:07.970Z,4.50
2018-02-25T03:53:07.970Z,4.60
2018-02-25T03:54:07.951Z,4.70
2018-02-25T03:55:07.906Z,4.30
2018-02-25T03:56:07.880Z,4.40
2018-02-25T03:57:07.916Z,4.80
2018-02-25T03:58:07.838Z,4.40
2018-02-25T03:59:07.811Z,4.50
2018-02-25T04:00:07.795Z,4.40
2018-02-25T04:01:07.790Z,4.90
2018-02-25T04:02:07.752Z,4.50
2018-02-25T04:03:07.730Z,4.50
2018-02-25T04:04:07.702Z,4.50
2018-02-25T04:05:07.736Z,4.50
2018-02-25T04:06:07.662Z,4.70
2018-02-25T04:07:07.648Z,4.70
2018-02-25T04:08:07.625Z,4.50
2018-02-25T04:09:07.589Z,5.00
2018-02-25T04:10:07.564Z,4.50
2018-02-25T04:11:07.541Z,4.90
2018-02-25T04:12:07.520Z,4.60
2018-02-25T04:13:07.499Z,4.90
2018-02-25T04:14:07.493Z,4.80
2018-02-25T04:15:07.466Z,5.00
2018-02-25T04:16:07.432Z,4.90
2018-02-25T04:17:07.407Z,5.00
2018-02-25T04:18:07.386Z,4.70
2018-02-25T04:19:07.366Z,4.90
2018-02-25T04:20:07.354Z,4.60
2018-02-25T04:21:07.318Z,4.90
2018-02-25T04:22:07.306Z,5.00
2018-02-25T04:23:07.268Z,4.80
2018-02-25T04:24:07.249Z,4.90
2018-02-25T04:25:08.821Z,4.50
2018-02-25T04:26:07.204Z,4.90
2018-02-25T04:27:07.184Z,4.90
2018-02-25T04:28:07.172Z,4.80
2018-02-25T04:29:07.139Z,4.60
2018-02-25T04:30:07.110Z,4.80
2018-02-25T04:31:07.107Z,5.00
2018-02-25T04:32:07.076Z,5.00
2018-02-25T04:33:07.070Z,4.50
2018-02-25T04:34:07.024Z,5.00
2018-02-25T04:35:06.994Z,5.10
2018-02-25T04:36:06.976Z,5.10
2018-02-25T04:37:06.951Z,5.20
2018-02-25T04:38:06.946Z,4.50
2018-02-25T04:39:06.934Z,5.10
2018-02-25T04:40:06.890Z,4.70
2018-02-25T04:41:06.864Z,5.00
2018-02-25T04:42:06.853Z,4.90
2018-02-25T04:43:06.830Z,5.40
2018-02-25T04:44:06.809Z,5.20
2018-02-25T04:45:06.769Z,5.20
2018-02-25T04:46:06.750Z,5.00
2018-02-25T04:47:06.732Z,5.50
2018-02-25T04:48:06.697Z,5.20
2018-02-25T04:49:06.694Z,5.20
2018-02-25T04:50:06.665Z,5.50
2018-02-25T04:51:06.634Z,5.20
2018-02-25T04:52:07.354Z,4.90
2018-02-25T04:53:06.589Z,5.30
2018-02-25T04:54:06.583Z,5.30
2018-02-25T04:55:06.541Z,5.20
2018-02-25T04:56:06.522Z,5.30
2018-02-25T04:57:06.526Z,5.00
2018-02-25T04:58:06.468Z,5.40
2018-02-25T04:59:06.478Z,4.90
2018-02-25T05:00:06.430Z,5.20
2018-02-25T05:01:06.463Z,5.20
2018-02-25T05:02:06.383Z,5.00
2018-02-25T05:03:06.376Z,5.50
2018-02-25T05:04:06.341Z,5.20
2018-02-25T05:05:06.318Z,5.50
2018-02-25T05:06:06.289Z,5.30
2018-02-25T05:07:06.276Z,5.10
2018-02-25T05:08:06.264Z,5.20
2018-02-25T05:09:06.230Z,5.30
2018-02-25T05:10:06.200Z,5.20
2018-02-25T05:11:06.181Z,5.30
2018-02-25T05:12:06.156Z,5.20
2018-02-25T05:13:06.134Z,5.20
2018-02-25T05:14:06.121Z,5.50
2018-02-25T05:15:06.085Z,5.10
2018-02-25T05:16:06.063Z,5.30
2018-02-25T05:17:06.041Z,5.60
2018-02-25T05:18:06.019Z,5.40
2018-02-25T05:19:06.008Z,5.30
2018-02-25T05:20:05.993Z,5.30
2018-02-25T05:21:05.950Z,5.30
2018-02-25T05:22:05.922Z,5.70
2018-02-25T05:23:05.900Z,5.60
2018-02-25T05:24:05.875Z,5.40
2018-02-25T05:25:05.857Z,5.60
2018-02-25T05:26:05.846Z,5.60
2018-02-25T05:27:05.813Z,5.50
2018-02-25T05:28:05.794Z,5.30
2018-02-25T05:29:05.764Z,5.30
2018-02-25T05:30:05.761Z,5.40
2018-02-25T05:31:05.716Z,5.50
2018-02-25T05:32:05.694Z,5.60
2018-02-25T05:33:05.671Z,5.80
2018-02-25T05:34:05.650Z,5.60
2018-02-25T05:35:05.623Z,5.80
2018-02-25T05:36:05.618Z,5.40
2018-02-25T05:37:05.578Z,5.60
2018-02-25T05:38:05.555Z,5.50
2018-02-25T05:39:26.546Z,5.30
2018-02-25T05:40:05.511Z,5.70
2018-02-25T05:41:05.504Z,5.20
2018-02-25T05:42:05.460Z,6.00
2018-02-25T05:43:05.438Z,5.70
2018-02-25T05:44:05.420Z,5.50
2018-02-25T05:45:05.407Z,5.80
2018-02-25T05:46:05.377Z,5.50
2018-02-25T05:47:05.348Z,5.40
2018-02-25T05:48:05.327Z,5.60
2018-02-25T05:49:05.302Z,5.60
2018-02-25T05:50:05.289Z,5.30
2018-02-25T05:51:05.273Z,5.40
2018-02-25T05:52:05.234Z,5.20
2018-02-25T05:53:05.209Z,5.50
2018-02-25T05:54:05.185Z,5.50
2018-02-25T05:55:05.159Z,5.50
2018-02-25T05:56:05.136Z,5.50
2018-02-25T05:57:05.134Z,5.40
2018-02-25T05:58:05.095Z,5.50
2018-02-25T05:59:05.075Z,5.70
2018-02-25T06:00:05.070Z,5.70
2018-02-25T06:01:05.029Z,5.60
2018-02-25T06:02:04.997Z,5.70
2018-02-25T06:03:04.977Z,5.70
2018-02-25T06:04:04.951Z,5.80
2018-02-25T06:05:04.929Z,5.50
2018-02-25T06:06:04.924Z,5.10
2018-02-25T06:07:04.897Z,5.70
2018-02-25T06:08:04.861Z,5.60
2018-02-25T06:09:04.836Z,5.50
2018-02-25T06:10:04.817Z,5.70
2018-02-25T06:11:05.357Z,5.40
2018-02-25T06:12:04.786Z,5.80
2018-02-25T06:13:04.747Z,5.90
2018-02-25T06:14:04.725Z,5.60
2018-02-25T06:15:04.761Z,5.60
2018-02-25T06:16:04.689Z,5.50
2018-02-25T06:17:04.670Z,5.70
2018-02-25T06:18:04.649Z,5.50
2018-02-25T06:19:04.699Z,5.30
2018-02-25T06:20:04.580Z,5.40
2018-02-25T06:21:04.562Z,5.50
2018-02-25T06:22:04.536Z,5.70
2018-02-25T06:23:04.584Z,5.20
2018-02-25T06:24:04.493Z,5.20
2018-02-25T06:25:04.478Z,5.50
2018-02-25T06:26:04.447Z,5.40
2018-02-25T06:27:04.441Z,5.50
2018-02-25T06:28:04.417Z,5.80
2018-02-25T06:29:04.376Z,5.70
2018-02-25T06:30:04.363Z,5.60
2018-02-25T06:31:04.328Z,5.50
2018-02-25T06:32:04.871Z,5.00
2018-02-25T06:33:15.718Z,5.60
2018-02-25T06:34:08.409Z,5.40
2018-02-25T06:35:07.773Z,5.50
2018-02-25T06:36:04.214Z,5.70
2018-02-25T06:37:05.815Z,5.70
2018-02-25T06:38:04.164Z,5.10
2018-02-25T06:39:05.818Z,5.40
2018-02-25T06:40:04.133Z,5.30
2018-02-25T06:41:04.097Z,5.80
2018-02-25T06:42:04.079Z,5.40
2018-02-25T06:43:04.050Z,5.50
2018-02-25T06:44:04.047Z,5.70
2018-02-25T06:45:04.027Z,5.70
2018-02-25T06:46:03.984Z,5.50
2018-02-25T06:47:03.961Z,5.80
2018-02-25T06:48:03.935Z,5.60
2018-02-25T06:49:03.913Z,5.70
2018-02-25T06:50:03.907Z,5.70
2018-02-25T06:51:03.869Z,5.90
2018-02-25T06:52:03.838Z,5.50
2018-02-25T06:53:03.819Z,5.80
2018-02-25T06:54:03.806Z,5.70
2018-02-25T06:55:03.774Z,5.60
2018-02-25T06:56:03.773Z,6.00
2018-02-25T06:57:03.728Z,5.60
2018-02-25T06:58:03.704Z,5.50
2018-02-25T06:59:03.674Z,5.40
2018-02-25T07:00:03.655Z,5.40
2018-02-25T07:01:03.653Z,5.50
2018-02-25T07:02:04.320Z,5.50
2018-02-25T07:03:03.590Z,5.60
2018-02-25T07:04:03.565Z,5.80
2018-02-25T07:05:03.546Z,5.60
2018-02-25T07:06:03.519Z,5.60
2018-02-25T07:07:03.512Z,5.50
2018-02-25T07:08:03.473Z,5.80
2018-02-25T07:09:03.444Z,5.20
2018-02-25T07:10:03.429Z,5.50
2018-02-25T07:11:03.404Z,5.50
2018-02-25T07:12:03.392Z,5.60
2018-02-25T07:13:03.376Z,5.70
2018-02-25T07:14:03.336Z,5.90
2018-02-25T07:15:03.369Z,5.70
2018-02-25T07:16:03.301Z,6.00
2018-02-25T07:17:03.263Z,5.80
2018-02-25T07:18:03.244Z,5.70
2018-02-25T07:19:03.234Z,5.70
2018-02-25T07:20:03.196Z,5.60
2018-02-25T07:21:03.176Z,5.60
2018-02-25T07:22:03.161Z,6.30
2018-02-25T07:23:03.124Z,5.40
2018-02-25T07:24:03.875Z,5.90
2018-02-25T07:25:03.081Z,5.80
2018-02-25T07:26:03.061Z,5.80
2018-02-25T07:27:03.040Z,6.00
2018-02-25T07:28:03.029Z,6.20
2018-02-25T07:29:02.995Z,5.80
2018-02-25T07:30:02.966Z,5.70
2018-02-25T07:31:02.945Z,5.90
2018-02-25T07:32:02.923Z,6.00
2018-02-25T07:33:02.916Z,5.90
2018-02-25T07:34:02.902Z,6.00
2018-02-25T07:35:06.318Z,6.00
2018-02-25T07:36:02.829Z,5.80
2018-02-25T07:37:02.813Z,6.10
2018-02-25T07:38:02.784Z,6.00
2018-02-25T07:39:02.758Z,6.00
2018-02-25T07:40:02.754Z,5.70
2018-02-25T07:41:02.714Z,6.10
2018-02-25T07:42:02.692Z,6.10
2018-02-25T07:43:02.668Z,6.00
2018-02-25T07:44:02.650Z,5.60
2018-02-25T07:45:02.619Z,6.20
2018-02-25T07:46:02.612Z,5.90
2018-02-25T07:47:03.357Z,6.10
2018-02-25T07:48:02.553Z,5.90
2018-02-25T07:49:02.528Z,6.10
2018-02-25T07:50:02.512Z,6.10
2018-02-25T07:51:02.498Z,6.20
2018-02-25T07:52:02.458Z,6.20
2018-02-25T07:53:02.445Z,6.00
2018-02-25T07:54:02.416Z,6.20
2018-02-25T07:55:02.394Z,6.00
2018-02-25T07:56:02.382Z,6.30
2018-02-25T07:57:02.348Z,6.10
2018-02-25T07:58:02.325Z,6.20
2018-02-25T07:59:02.302Z,6.00
2018-02-25T08:00:02.273Z,6.20
2018-02-25T08:01:02.273Z,5.60
2018-02-25T08:02:02.234Z,6.10
2018-02-25T08:03:02.222Z,6.40
2018-02-25T08:04:02.188Z,6.10
2018-02-25T08:05:02.165Z,6.30
2018-02-25T08:06:02.138Z,6.70
2018-02-25T08:07:02.132Z,5.90
2018-02-25T08:08:02.094Z,6.10
2018-02-25T08:09:02.067Z,5.90
2018-02-25T08:10:02.049Z,5.90
2018-02-25T08:11:02.043Z,6.10
2018-02-25T08:12:02.005Z,6.00
2018-02-25T08:13:01.990Z,6.20
2018-02-25T08:14:01.972Z,5.80
2018-02-25T08:15:01.930Z,6.10
2018-02-25T08:16:01.912Z,6.00
2018-02-25T08:17:01.888Z,6.30
2018-02-25T08:18:01.873Z,6.20
2018-02-25T08:19:01.857Z,6.20
2018-02-25T08:20:01.824Z,6.30
2018-02-25T08:21:01.798Z,10.80
2018-02-25T08:22:02.390Z,8.20
2018-02-25T08:23:01.756Z,7.00
2018-02-25T08:24:01.738Z,6.00
2018-02-25T08:25:01.705Z,6.10
2018-02-25T08:26:01.693Z,6.70
2018-02-25T08:27:01.660Z,6.20
2018-02-25T08:28:01.655Z,6.60
2018-02-25T08:29:01.608Z,6.50
2018-02-25T08:30:01.591Z,7.10
2018-02-25T08:31:01.577Z,6.20
2018-02-25T08:32:01.542Z,6.50
2018-02-25T08:33:01.534Z,6.30
2018-02-25T08:34:01.503Z,6.10
2018-02-25T08:35:01.480Z,6.70
2018-02-25T08:36:05.817Z,6.30
2018-02-25T08:37:01.457Z,6.30
2018-02-25T08:38:01.435Z,6.40
2018-02-25T08:39:01.385Z,6.10
2018-02-25T08:40:01.365Z,6.20
2018-02-25T08:41:01.338Z,6.50
2018-02-25T08:42:01.318Z,6.10
2018-02-25T08:43:01.308Z,6.40
2018-02-25T08:44:01.283Z,6.20
2018-02-25T08:45:01.250Z,6.10
2018-02-25T08:46:01.224Z,6.20
2018-02-25T08:47:01.899Z,6.40
2018-02-25T08:48:01.183Z,6.20
2018-02-25T08:49:01.183Z,5.90
2018-02-25T08:50:01.156Z,5.90
2018-02-25T08:51:01.112Z,5.90
2018-02-25T08:52:01.088Z,6.10
2018-02-25T08:53:01.071Z,6.10
2018-02-25T08:54:01.067Z,5.90
2018-02-25T08:55:01.020Z,5.90
2018-02-25T08:56:01.000Z,6.00
2018-02-25T08:57:00.980Z,6.00
2018-02-25T08:58:00.960Z,5.90
2018-02-25T08:59:00.942Z,5.60
2018-02-25T09:00:01.850Z,5.80
2018-02-25T09:01:00.911Z,5.60
2018-02-25T09:02:00.895Z,6.20
2018-02-25T09:03:00.846Z,6.20
2018-02-25T09:04:00.821Z,5.80
2018-02-25T09:05:00.818Z,6.00
2018-02-25T09:06:00.785Z,5.80
2018-02-25T09:07:00.819Z,5.80
2018-02-25T09:08:00.733Z,5.80
2018-02-25T09:09:00.707Z,6.20
2018-02-25T09:10:00.685Z,5.90
2018-02-25T09:11:00.669Z,5.90
2018-02-25T09:12:00.663Z,5.80
2018-02-25T09:13:00.648Z,6.10
2018-02-25T09:14:00.600Z,5.90
2018-02-25T09:15:00.585Z,5.90
2018-02-25T09:16:00.555Z,5.70
2018-02-25T09:17:00.534Z,5.70
2018-02-25T09:18:02.318Z,5.70
2018-02-25T09:19:00.504Z,5.60
2018-02-25T09:20:00.464Z,5.50
2018-02-25T09:21:00.443Z,5.90
2018-02-25T09:22:00.416Z,5.60
2018-02-25T09:23:00.398Z,6.00
2018-02-25T09:24:00.393Z,5.80
2018-02-25T09:25:00.367Z,5.60
2018-02-25T09:26:00.337Z,5.80
2018-02-25T09:27:00.306Z,5.70
2018-02-25T09:28:00.291Z,5.80
2018-02-25T09:29:00.278Z,6.00
2018-02-25T09:30:00.241Z,5.70
2018-02-25T09:31:00.225Z,5.70
2018-02-25T09:32:00.212Z,5.70
2018-02-25T09:33:00.178Z,5.80
2018-02-25T09:34:00.171Z,5.90
2018-02-25T09:35:00.130Z,5.60
2018-02-25T09:36:00.118Z,5.40
2018-02-25T09:37:00.093Z,5.60
2018-02-25T09:38:00.069Z,5.80
2018-02-25T09:39:00.063Z,5.80
2018-02-25T09:40:00.044Z,6.00
2018-02-25T09:41:00.021Z,5.60
2018-02-25T09:41:59.984Z,5.60
2018-02-25T09:42:59.959Z,5.90
2018-02-25T09:43:59.936Z,5.80
2018-02-25T09:44:59.933Z,5.60
2018-02-25T09:45:59.909Z,5.70
2018-02-25T09:46:59.871Z,5.50
2018-02-25T09:47:59.856Z,5.80
2018-02-25T09:48:59.846Z,6.00
2018-02-25T09:49:59.805Z,5.60
2018-02-25T09:50:59.910Z,5.30
2018-02-25T09:51:59.763Z,5.80
2018-02-25T09:52:59.743Z,5.50
2018-02-25T09:53:59.737Z,5.30
2018-02-25T09:54:59.698Z,6.00
2018-02-25T09:55:59.676Z,5.80
2018-02-25T09:56:59.669Z,5.20
2018-02-25T09:57:59.634Z,5.70
2018-02-25T09:58:59.619Z,5.30
2018-02-25T09:59:59.613Z,5.70
2018-02-25T10:00:59.568Z,5.50
2018-02-25T10:01:59.546Z,5.40
2018-02-25T10:03:01.319Z,5.80
2018-02-25T10:03:59.508Z,5.60
2018-02-25T10:04:59.480Z,5.80
2018-02-25T10:06:01.319Z,5.60
2018-02-25T10:06:59.477Z,5.50
2018-02-25T10:07:59.459Z,5.60
2018-02-25T10:08:59.396Z,5.30
2018-02-25T10:09:59.377Z,5.80
2018-02-25T10:10:59.368Z,5.60
2018-02-25T10:12:00.318Z,5.20
2018-02-25T10:12:59.310Z,5.20
2018-02-25T10:13:59.288Z,5.20
2018-02-25T10:14:59.263Z,5.30
2018-02-25T10:15:59.244Z,5.20
2018-02-25T10:16:59.246Z,5.10
2018-02-25T10:17:59.204Z,4.80
2018-02-25T10:18:59.194Z,5.10
2018-02-25T10:19:59.161Z,5.40
2018-02-25T10:20:59.142Z,5.30
2018-02-25T10:21:59.133Z,5.50
2018-02-25T10:22:59.107Z,5.20
2018-02-25T10:23:59.070Z,5.20
2018-02-25T10:24:59.071Z,5.40
2018-02-25T10:25:59.032Z,5.30
2018-02-25T10:26:59.223Z,4.70
2018-02-25T10:27:58.993Z,5.30
2018-02-25T10:28:58.992Z,5.20
2018-02-25T10:29:58.954Z,5.40
2018-02-25T10:30:58.933Z,5.10
2018-02-25T10:31:58.934Z,5.30
2018-02-25T10:32:59.854Z,5.20
2018-02-25T10:33:58.879Z,5.20
2018-02-25T10:34:59.395Z,5.20
2018-02-25T10:35:58.843Z,5.10
2018-02-25T10:36:59.402Z,5.10
2018-02-25T10:37:58.807Z,4.90
2018-02-25T10:38:58.781Z,4.70
2018-02-25T10:39:58.756Z,5.00
2018-02-25T10:40:58.737Z,5.00
2018-02-25T10:41:58.721Z,4.80
2018-02-25T10:42:58.724Z,4.90
2018-02-25T10:43:58.692Z,5.10
2018-02-25T10:44:58.685Z,4.70
2018-02-25T10:45:58.646Z,5.10
2018-02-25T10:46:58.630Z,5.30
2018-02-25T10:47:58.615Z,5.30
2018-02-25T10:48:58.606Z,5.50
2018-02-25T10:49:58.578Z,5.20
2018-02-25T10:50:58.569Z,5.20
2018-02-25T10:51:58.542Z,5.40
2018-02-25T10:52:58.526Z,5.20
2018-02-25T10:53:58.530Z,4.90
2018-02-25T10:54:58.493Z,4.90
2018-02-25T10:55:58.479Z,5.00
2018-02-25T10:56:58.464Z,5.00
2018-02-25T10:57:58.451Z,5.00
2018-02-25T10:58:58.450Z,5.00
2018-02-25T10:59:58.457Z,5.40
2018-02-25T11:00:58.405Z,5.30
2018-02-25T11:01:58.387Z,4.90
2018-02-25T11:02:58.377Z,4.90
2018-02-25T11:03:58.376Z,4.70
2018-02-25T11:04:58.346Z,4.70
2018-02-25T11:05:58.826Z,4.60
2018-02-25T11:06:58.321Z,4.80
2018-02-25T11:07:58.315Z,4.80
2018-02-25T11:08:58.826Z,4.90
2018-02-25T11:09:58.283Z,5.10
2018-02-25T11:10:58.262Z,4.70
2018-02-25T11:11:58.270Z,4.40
2018-02-25T11:12:58.258Z,5.00
2018-02-25T11:13:58.231Z,4.80
2018-02-25T11:14:58.214Z,5.00
2018-02-25T11:15:58.222Z,5.10
2018-02-25T11:16:58.195Z,4.70
2018-02-25T11:17:58.175Z,4.60
2018-02-25T11:18:58.175Z,4.70
2018-02-25T11:19:58.153Z,4.90
2018-02-25T11:20:58.149Z,4.70
2018-02-25T11:21:58.130Z,4.60
2018-02-25T11:22:58.143Z,4.30
2018-02-25T11:23:58.123Z,4.60
2018-02-25T11:24:58.093Z,5.10
2018-02-25T11:25:58.080Z,4.50
2018-02-25T11:26:58.098Z,4.80
2018-02-25T11:27:58.057Z,4.50
2018-02-25T11:28:58.046Z,4.50
2018-02-25T11:29:58.044Z,4.00
2018-02-25T11:30:58.024Z,4.60
2018-02-25T11:31:58.006Z,4.50
2018-02-25T11:32:58.002Z,4.80
2018-02-25T11:33:57.981Z,4.50
2018-02-25T11:34:57.974Z,4.60
2018-02-25T11:35:57.988Z,4.40
2018-02-25T11:36:57.950Z,4.50
2018-02-25T11:37:57.937Z,4.60
2018-02-25T11:38:57.931Z,4.20
2018-02-25T11:39:57.921Z,4.20
2018-02-25T11:40:57.922Z,4.50
2018-02-25T11:41:58.872Z,4.50
2018-02-25T11:42:57.888Z,4.60
2018-02-25T11:43:57.870Z,4.70
2018-02-25T11:44:58.365Z,4.70
2018-02-25T11:45:57.846Z,5.00
2018-02-25T11:46:57.857Z,4.90
2018-02-25T11:47:57.829Z,4.90
2018-02-25T11:48:57.821Z,5.00
2018-02-25T11:49:57.802Z,4.50
2018-02-25T11:50:57.790Z,4.70
2018-02-25T11:51:57.803Z,4.50
2018-02-25T11:52:57.770Z,4.40
2018-02-25T11:53:57.768Z,4.50
2018-02-25T11:54:57.751Z,4.90
2018-02-25T11:55:57.741Z,4.80
2018-02-25T11:56:57.723Z,4.70
2018-02-25T11:57:57.735Z,4.90
2018-02-25T11:58:57.707Z,4.90
2018-02-25T11:59:57.696Z,4.70
2018-02-25T12:00:57.681Z,4.80
2018-02-25T12:01:57.678Z,4.70
2018-02-25T12:02:57.663Z,4.70
2018-02-25T12:03:57.675Z,4.50
2018-02-25T12:04:57.641Z,4.50
2018-02-25T12:05:57.652Z,4.60
2018-02-25T12:06:57.617Z,4.60
2018-02-25T12:07:57.607Z,4.60
2018-02-25T12:08:57.610Z,4.40
2018-02-25T12:09:57.583Z,4.80
2018-02-25T12:10:57.568Z,4.60
2018-02-25T12:11:57.562Z,4.50
2018-02-25T12:12:57.548Z,4.50
2018-02-25T12:13:57.540Z,4.60
2018-02-25T12:14:59.611Z,4.60
2018-02-25T12:15:57.511Z,4.30
2018-02-25T12:16:57.501Z,4.70
2018-02-25T12:17:57.496Z,4.60
2018-02-25T12:18:57.489Z,4.70
2018-02-25T12:19:57.464Z,4.70
2018-02-25T12:20:57.467Z,4.20
2018-02-25T12:21:57.447Z,4.60
2018-02-25T12:22:57.434Z,4.50
2018-02-25T12:23:57.426Z,4.10
2018-02-25T12:24:58.379Z,4.50
2018-02-25T12:25:57.402Z,4.10
2018-02-25T12:26:57.400Z,4.50
2018-02-25T12:27:57.886Z,4.20
2018-02-25T12:28:57.373Z,4.50
2018-02-25T12:29:57.355Z,4.20
2018-02-25T12:30:57.348Z,4.60
2018-02-25T12:31:57.353Z,4.50
2018-02-25T12:32:57.929Z,4.30
2018-02-25T12:33:57.319Z,4.40
2018-02-25T12:34:57.303Z,4.40
2018-02-25T12:35:57.282Z,4.70
2018-02-25T12:36:57.277Z,4.30
2018-02-25T12:37:57.280Z,4.30
2018-02-25T12:38:57.252Z,4.40
2018-02-25T12:39:57.239Z,4.60
2018-02-25T12:40:57.235Z,4.40
2018-02-25T12:41:57.236Z,5.20
2018-02-25T12:42:57.207Z,8.90
2018-02-25T12:43:57.203Z,17.80
2018-02-25T12:44:57.202Z,46.20
2018-02-25T12:45:57.181Z,39.80
2018-02-25T12:46:57.159Z,47.30
2018-02-25T12:47:57.148Z,29.40
2018-02-25T12:48:57.153Z,15.30
2018-02-25T12:49:57.146Z,11.30
2018-02-25T12:50:57.114Z,8.10
2018-02-25T12:51:57.106Z,6.70
2018-02-25T12:52:57.093Z,4.80
2018-02-25T12:53:57.077Z,4.50
2018-02-25T12:54:57.069Z,5.00
2018-02-25T12:55:57.073Z,4.90
2018-02-25T12:56:57.052Z,4.30
2018-02-25T12:57:57.037Z,4.10
2018-02-25T12:58:57.026Z,3.80
2018-02-25T12:59:57.013Z,4.10
2018-02-25T13:00:57.019Z,4.10
2018-02-25T13:01:56.990Z,4.60
2018-02-25T13:02:56.977Z,4.10
2018-02-25T13:03:56.966Z,4.50
2018-02-25T13:04:56.955Z,4.80
2018-02-25T13:05:57.006Z,4.60
2018-02-25T13:07:17.939Z,4.10
2018-02-25T13:07:56.915Z,4.40
2018-02-25T13:08:56.910Z,6.10
2018-02-25T13:09:56.898Z,5.30
2018-02-25T13:10:56.890Z,4.30
2018-02-25T13:11:56.887Z,4.00
2018-02-25T13:12:56.863Z,3.90
2018-02-25T13:13:57.380Z,4.00
2018-02-25T13:14:56.837Z,4.00
2018-02-25T13:15:56.834Z,4.50
2018-02-25T13:16:56.832Z,4.40
2018-02-25T13:17:56.807Z,4.20